Time;durP1;ratioP1;P1;durP2;ratioP2;P2;SDS_P1;SDS_P2;PMS_P1;PMS_P2;Temp;Humidity;BMP_temperature;BMP_pressure;BME280_temperature;BME280_humidity;BME280_pressure;Samples;Min_cycle;Max_cycle;Signal;HPM_P1;HPM_P2
2022/11/27 00:00:56;;;;;;;74.97;49.10;;;13.80;92.00;;;;;;4589577;19;20018;-21
2022/11/27 00:02:46;;;;;;;71.87;50.43;;;13.80;92.00;;;;;;4590457;19;20018;-21
2022/11/27 00:04:18;;;;;;;76.20;51.05;;;13.80;92.00;;;;;;4589648;19;20461;-21
2022/11/27 00:05:54;;;;;;;71.43;48.53;;;13.80;92.00;;;;;;4589179;19;20037;-20
2022/11/27 00:07:25;;;;;;;75.20;50.50;;;13.80;92.00;;;;;;4590793;19;20025;-21
2022/11/27 00:09:03;;;;;;;73.00;50.37;;;13.80;92.00;;;;;;4589282;19;20015;-21
2022/11/27 00:10:35;;;;;;;74.93;50.30;;;13.70;92.00;;;;;;4587826;19;20006;-21
2022/11/27 00:12:06;;;;;;;83.15;50.63;;;13.80;92.10;;;;;;4590289;19;21031;-21
2022/11/27 00:13:39;;;;;;;72.87;49.63;;;13.70;92.10;;;;;;4589587;19;20487;-21
2022/11/27 00:15:10;;;;;;;72.35;50.20;;;13.80;92.10;;;;;;4589102;19;20104;-23
2022/11/27 00:16:41;;;;;;;76.20;52.78;;;13.80;92.10;;;;;;4590559;19;20010;-21
2022/11/27 00:18:12;;;;;;;72.88;49.97;;;13.70;92.10;;;;;;4589072;19;20456;-21
2022/11/27 00:19:43;;;;;;;77.20;50.60;;;13.80;92.10;;;;;;4589193;19;20006;-20
2022/11/27 00:21:21;;;;;;;80.25;51.72;;;13.80;92.10;;;;;;4590024;19;20074;-20
2022/11/27 00:22:52;;;;;;;76.57;52.07;;;13.80;92.10;;;;;;4588850;19;20014;-20
2022/11/27 00:24:23;;;;;;;75.32;51.97;;;13.80;92.00;;;;;;4590531;19;20014;-23
2022/11/27 00:25:54;;;;;;;75.25;53.30;;;13.80;92.00;;;;;;4589928;19;20017;-20
2022/11/27 00:27:25;;;;;;;75.20;50.85;;;13.80;92.00;;;;;;4590706;19;20011;-20
2022/11/27 00:28:57;;;;;;;74.90;52.63;;;13.70;92.00;;;;;;4589411;19;20030;-23
2022/11/27 00:30:29;;;;;;;72.37;52.57;;;13.70;92.10;;;;;;4589166;19;20480;-21
2022/11/27 00:32:02;;;;;;;73.00;53.40;;;13.70;92.10;;;;;;4588346;19;20370;-20
2022/11/27 00:33:33;;;;;;;77.20;52.85;;;13.70;92.00;;;;;;4590261;19;20019;-21
2022/11/27 00:35:05;;;;;;;75.38;51.47;;;13.70;92.00;;;;;;4588966;19;20018;-21
2022/11/27 00:36:36;;;;;;;73.22;51.15;;;13.70;92.00;;;;;;4590187;19;20010;-22
2022/11/27 00:38:07;;;;;;;69.70;49.53;;;13.70;92.00;;;;;;4589567;19;20036;-21
2022/11/27 00:39:39;;;;;;;66.30;47.17;;;13.70;92.00;;;;;;4590128;19;20047;-20
2022/11/27 00:41:19;;;;;;;68.33;48.13;;;13.70;92.10;;;;;;4589780;19;20467;-21
2022/11/27 00:42:50;;;;;;;72.07;45.43;;;13.70;92.00;;;;;;4587350;19;20090;-21
2022/11/27 00:44:22;;;;;;;66.40;46.23;;;13.70;92.00;;;;;;4589920;19;20010;-21
2022/11/27 00:45:54;;;;;;;69.13;48.03;;;13.70;92.00;;;;;;4589126;19;20010;-21
2022/11/27 00:47:25;;;;;;;71.05;47.50;;;13.70;92.10;;;;;;4589656;19;20360;-20
2022/11/27 00:48:58;;;;;;;70.38;47.38;;;13.70;92.10;;;;;;4589689;19;20015;-21
2022/11/27 00:50:31;;;;;;;66.77;46.67;;;13.70;92.10;;;;;;4589105;19;20015;-20
2022/11/27 00:52:02;;;;;;;70.30;48.27;;;13.70;92.00;;;;;;4586586;19;20090;-22
2022/11/27 00:53:34;;;;;;;66.67;47.07;;;13.60;91.90;;;;;;4587976;19;20461;-21
2022/11/27 00:55:07;;;;;;;71.60;48.70;;;13.70;92.00;;;;;;4591703;19;20003;-21
2022/11/27 00:56:38;;;;;;;;;;;13.60;92.00;;;;;;4594210;19;20039;-21
2022/11/27 00:58:09;;;;;;;68.22;47.22;;;13.70;92.10;;;;;;4594375;19;20386;-22
2022/11/27 00:59:40;;;;;;;71.95;48.60;;;13.70;92.10;;;;;;4593820;19;20025;-21
2022/11/27 01:01:20;;;;;;;76.43;52.10;;;13.70;92.10;;;;;;4594477;19;20355;-20
2022/11/27 01:02:52;;;;;;;75.63;53.07;;;13.70;92.20;;;;;;4593272;19;20036;-21
2022/11/27 01:04:22;;;;;;;76.57;53.83;;;13.70;92.20;;;;;;4593281;19;21076;-21
2022/11/27 01:05:53;;;;;;;83.72;56.80;;;13.70;92.20;;;;;;4591883;19;20441;-21
2022/11/27 01:07:25;;;;;;;84.22;58.90;;;13.70;92.20;;;;;;4593875;19;20033;-21
2022/11/27 01:08:56;;;;;;;77.13;55.05;;;13.70;92.20;;;;;;4592063;19;20018;-23
2022/11/27 01:10:28;;;;;;;84.03;56.43;;;13.70;92.20;;;;;;4593228;19;20007;-21
2022/11/27 01:12:00;;;;;;;79.07;55.13;;;13.70;92.10;;;;;;4593449;19;20472;-20
2022/11/27 01:13:34;;;;;;;82.30;56.25;;;13.70;92.20;;;;;;4594329;19;20011;-22
2022/11/27 01:15:06;;;;;;;78.47;54.00;;;13.70;92.20;;;;;;4593209;19;20011;-21
2022/11/27 01:16:37;;;;;;;79.30;53.63;;;13.70;92.10;;;;;;4592744;19;20010;-21
2022/11/27 01:18:10;;;;;;;77.83;53.50;;;13.70;92.10;;;;;;4592888;19;20014;-21
2022/11/27 01:19:41;;;;;;;71.93;50.85;;;13.70;92.10;;;;;;4593320;19;20162;-21
2022/11/27 01:21:15;;;;;;;76.20;52.00;;;13.70;92.10;;;;;;4593909;19;20002;-21
2022/11/27 01:22:47;;;;;;;76.50;50.67;;;13.70;92.10;;;;;;4593575;19;20026;-21
2022/11/27 01:24:18;;;;;;;70.15;47.95;;;13.70;92.10;;;;;;4593306;19;20018;-21
2022/11/27 01:25:52;;;;;;;72.13;50.43;;;13.70;92.10;;;;;;4593539;19;20014;-20
2022/11/27 01:27:23;;;;;;;74.33;49.37;;;13.70;92.10;;;;;;4592235;19;20453;-21
2022/11/27 01:28:55;;;;;;;73.35;50.33;;;13.70;92.10;;;;;;4593325;19;20014;-21
2022/11/27 01:30:27;;;;;;;73.00;50.03;;;13.70;92.10;;;;;;4593188;19;20040;-21
2022/11/27 01:31:59;;;;;;;72.80;49.37;;;13.60;92.00;;;;;;4593565;19;20425;-22
2022/11/27 01:33:31;;;;;;;68.28;47.55;;;13.70;92.00;;;;;;4593407;19;20441;-21
2022/11/27 01:35:02;;;;;;;68.32;48.35;;;13.70;92.00;;;;;;4593312;19;20393;-21
2022/11/27 01:36:33;;;;;;;67.35;48.13;;;13.70;92.10;;;;;;4591758;19;20014;-21
2022/11/27 01:38:06;;;;;;;65.00;44.87;;;13.70;92.10;;;;;;4592738;19;20021;-23
2022/11/27 01:39:37;;;;;;;62.08;43.70;;;13.60;92.20;;;;;;4593328;19;20353;-24
2022/11/27 01:41:16;;;;;;;65.00;45.70;;;13.70;92.20;;;;;;4593049;19;20015;-21
2022/11/27 01:42:47;;;;;;;67.20;45.63;;;13.70;92.30;;;;;;4593067;19;20006;-21
2022/11/27 01:44:23;;;;;;;64.30;44.43;;;13.70;92.20;;;;;;4593440;19;20464;-20
2022/11/27 01:45:54;;;;;;;65.43;45.53;;;13.70;92.20;;;;;;4593518;19;20116;-20
2022/11/27 01:47:31;;;;;;;67.20;46.17;;;13.70;92.20;;;;;;4591595;19;20441;-20
2022/11/27 01:49:11;;;;;;;67.03;46.43;;;13.70;92.30;;;;;;4591964;19;20011;-23
2022/11/27 01:50:42;;;;;;;63.47;44.97;;;13.70;92.30;;;;;;4591592;19;20010;-20
2022/11/27 01:52:26;;;;;;;59.37;41.80;;;13.70;92.30;;;;;;4591469;19;20014;-21
2022/11/27 01:53:58;;;;;;;54.30;38.38;;;13.70;92.30;;;;;;4593316;19;20002;-20
2022/11/27 01:55:36;;;;;;;54.83;38.03;;;13.70;92.30;;;;;;4591521;19;20076;-20
2022/11/27 01:57:43;;;;;;;55.30;38.43;;;13.70;92.30;;;;;;4592644;19;20011;-22
2022/11/27 01:59:15;;;;;;;58.13;39.20;;;13.70;92.30;;;;;;4591823;19;20449;-23
2022/11/27 02:00:47;;;;;;;55.40;41.83;;;13.70;92.30;;;;;;4592819;19;20077;-21
2022/11/27 02:02:18;;;;;;;53.53;39.83;;;13.70;92.30;;;;;;4593345;19;20029;-21
2022/11/27 02:03:49;;;;;;;55.42;40.55;;;13.70;92.30;;;;;;4591233;19;20018;-23
2022/11/27 02:05:24;;;;;;;58.60;40.27;;;13.60;92.30;;;;;;4591935;19;20325;-21
2022/11/27 02:06:57;;;;;;;53.83;38.37;;;13.60;92.20;;;;;;4592884;19;20455;-22
2022/11/27 02:08:29;;;;;;;54.80;39.10;;;13.60;92.20;;;;;;4591346;19;20011;-20
2022/11/27 02:10:00;;;;;;;54.42;40.08;;;13.60;92.20;;;;;;4591385;19;20089;-21
2022/11/27 02:11:57;;;;;;;55.37;37.67;;;13.60;92.20;;;;;;4591923;19;20015;-21
2022/11/27 02:14:05;;;;;;;52.90;38.77;;;13.60;92.20;;;;;;4592626;19;20995;-21
2022/11/27 02:15:42;;;;;;;51.93;37.63;;;13.60;92.30;;;;;;4589858;19;20007;-21
2022/11/27 02:17:29;;;;;;;52.13;36.63;;;13.60;92.40;;;;;;4590499;19;20006;-21
2022/11/27 02:19:24;;;;;;;51.23;36.77;;;13.60;92.40;;;;;;4589531;19;20002;-21
2022/11/27 02:21:09;;;;;;;48.20;34.90;;;13.60;92.40;;;;;;4590269;19;20448;-20
2022/11/27 02:22:50;;;;;;;50.67;35.77;;;13.70;92.40;;;;;;4589752;19;20432;-21
2022/11/27 02:24:49;;;;;;;53.87;38.30;;;13.60;92.40;;;;;;4589510;19;20031;-21
2022/11/27 02:26:55;;;;;;;51.17;35.33;;;13.60;92.40;;;;;;4589904;19;20860;-20
2022/11/27 02:29:02;;;;;;;52.17;35.57;;;13.70;92.40;;;;;;4589973;19;20033;-20
2022/11/27 02:30:35;;;;;;;53.73;35.67;;;13.70;92.40;;;;;;4589654;19;20010;-22
2022/11/27 02:32:19;;;;;;;49.97;37.53;;;13.60;92.40;;;;;;4589762;19;20018;-21
2022/11/27 02:33:54;;;;;;;54.93;37.40;;;13.60;92.40;;;;;;4589884;19;20389;-22
2022/11/27 02:35:31;;;;;;;56.47;39.00;;;13.60;92.40;;;;;;4589318;19;20006;-20
2022/11/27 02:37:21;;;;;;;55.93;39.87;;;13.60;92.40;;;;;;4589539;19;20006;-20
2022/11/27 02:38:55;;;;;;;54.60;38.10;;;13.60;92.40;;;;;;4589724;19;20554;-23
2022/11/27 02:40:44;;;;;;;52.83;37.93;;;13.60;92.40;;;;;;4589812;19;20022;-23
2022/11/27 02:42:19;;;;;;;53.60;37.40;;;13.60;92.30;;;;;;4589346;19;20026;-22
2022/11/27 02:43:50;;;;;;;53.63;37.23;;;13.60;92.30;;;;;;4589653;19;20007;-21
2022/11/27 02:45:43;;;;;;;51.03;37.70;;;13.60;92.30;;;;;;4589551;19;20021;-20
2022/11/27 02:47:16;;;;;;;50.90;35.50;;;13.60;92.30;;;;;;4589259;19;20413;-20
2022/11/27 02:48:54;;;;;;;49.37;36.17;;;13.70;92.30;;;;;;4589882;19;20095;-21
2022/11/27 02:50:26;;;;;;;49.33;35.73;;;13.60;92.30;;;;;;4589812;19;20018;-21
2022/11/27 02:51:58;;;;;;;50.33;36.00;;;13.60;92.20;;;;;;4588147;19;20006;-21
2022/11/27 02:53:36;;;;;;;50.25;36.80;;;13.60;92.30;;;;;;4589024;19;20425;-21
2022/11/27 02:55:12;;;;;;;53.53;37.23;;;13.60;92.40;;;;;;4589067;19;20364;-20
2022/11/27 02:56:43;;;;;;;48.97;35.17;;;13.60;92.50;;;;;;4589163;19;20452;-21
2022/11/27 02:58:19;;;;;;;50.50;36.00;;;13.60;92.50;;;;;;4589096;19;20828;-20
2022/11/27 02:59:51;;;;;;;49.47;35.97;;;13.60;92.50;;;;;;4589200;19;20445;-22
2022/11/27 03:01:23;;;;;;;45.97;34.93;;;13.70;92.50;;;;;;4589131;19;20011;-22
2022/11/27 03:02:58;;;;;;;49.83;35.10;;;13.60;92.50;;;;;;4589509;19;21029;-20
2022/11/27 03:04:36;;;;;;;51.00;35.60;;;13.60;92.50;;;;;;4588667;19;20014;-21
2022/11/27 03:06:09;;;;;;;48.20;34.83;;;13.60;92.50;;;;;;4588883;19;20021;-20
2022/11/27 03:08:06;;;;;;;50.73;35.07;;;13.70;92.50;;;;;;4590527;19;20018;-21
2022/11/27 03:09:39;;;;;;;46.93;33.90;;;13.60;92.40;;;;;;4590144;19;20476;-23
2022/11/27 03:11:13;;;;;;;43.97;34.33;;;13.60;92.40;;;;;;4588844;19;20015;-20
2022/11/27 03:12:45;;;;;;;48.63;34.77;;;13.60;92.40;;;;;;4588011;19;20472;-21
2022/11/27 03:14:19;;;;;;;48.90;35.07;;;13.60;92.40;;;;;;4588862;19;20480;-20
2022/11/27 03:15:52;;;;;;;51.17;36.27;;;13.60;92.40;;;;;;4589094;19;20003;-20
2022/11/27 03:17:32;;;;;;;47.77;35.67;;;13.60;92.40;;;;;;4587719;19;20019;-21
2022/11/27 03:19:05;;;;;;;50.17;34.65;;;13.60;92.30;;;;;;4588424;19;20007;-20
2022/11/27 03:20:40;;;;;;;47.63;34.57;;;13.60;92.30;;;;;;4588830;19;20023;-22
2022/11/27 03:22:11;;;;;;;47.50;34.17;;;13.60;92.40;;;;;;4589023;19;20014;-21
2022/11/27 03:23:42;;;;;;;46.55;32.67;;;13.60;92.30;;;;;;4589210;19;20007;-21
2022/11/27 03:25:15;;;;;;;47.40;32.53;;;13.60;92.30;;;;;;4588663;19;20016;-21
2022/11/27 03:26:46;;;;;;;45.97;33.17;;;13.60;92.30;;;;;;4588657;19;20606;-21
2022/11/27 03:28:18;;;;;;;47.90;34.90;;;13.60;92.40;;;;;;4588478;19;20011;-21
2022/11/27 03:29:54;;;;;;;41.50;31.17;;;13.70;92.40;;;;;;4588858;19;20464;-22
2022/11/27 03:31:25;;;;;;;46.57;32.23;;;13.60;92.40;;;;;;4588411;19;20440;-21
2022/11/27 03:32:58;;;;;;;45.23;31.17;;;13.60;92.40;;;;;;4588018;19;20034;-20
2022/11/27 03:34:30;;;;;;;42.00;31.23;;;13.60;92.50;;;;;;4589002;19;20014;-21
2022/11/27 03:36:12;;;;;;;47.40;31.87;;;13.60;92.50;;;;;;4589016;19;20463;-21
2022/11/27 03:37:44;;;;;;;41.97;30.52;;;13.60;92.50;;;;;;4588537;19;20131;-21
2022/11/27 03:39:20;;;;;;;41.83;30.40;;;13.70;92.60;;;;;;4587487;19;20011;-20
2022/11/27 03:41:03;;;;;;;49.43;32.93;;;13.60;92.50;;;;;;4588288;19;20495;-20
2022/11/27 03:42:58;;;;;;;44.37;32.03;;;13.60;92.60;;;;;;4590823;19;20482;-21
2022/11/27 03:44:52;;;;;;;46.73;32.60;;;13.60;92.50;;;;;;4589418;19;20011;-21
2022/11/27 03:46:35;;;;;;;44.13;32.47;;;13.60;92.60;;;;;;4588287;19;20019;-21
2022/11/27 03:48:24;;;;;;;44.40;32.43;;;13.70;92.60;;;;;;4588338;19;20023;-21
2022/11/27 03:50:19;;;;;;;45.40;31.60;;;13.70;92.60;;;;;;4588125;19;20003;-21
2022/11/27 03:52:14;;;;;;;47.03;31.53;;;13.60;92.60;;;;;;4587033;19;20094;-21
2022/11/27 03:53:55;;;;;;;43.87;31.93;;;13.60;92.60;;;;;;4588079;19;20025;-21
2022/11/27 03:56:00;;;;;;;41.80;30.17;;;13.60;92.60;;;;;;4588275;19;20024;-20
2022/11/27 03:57:39;;;;;;;44.90;30.77;;;13.60;92.60;;;;;;4587969;19;20022;-20
2022/11/27 03:59:27;;;;;;;44.30;31.63;;;13.60;92.60;;;;;;4588938;19;19995;-21
2022/11/27 04:00:59;;;;;;;44.13;31.33;;;13.60;92.60;;;;;;4588928;19;20019;-23
2022/11/27 04:02:40;;;;;;;45.17;31.88;;;13.60;92.60;;;;;;4588108;19;20377;-20
2022/11/27 04:04:12;;;;;;;41.10;30.10;;;13.60;92.60;;;;;;4587053;19;20022;-21
2022/11/27 04:05:45;;;;;;;42.63;30.63;;;13.60;92.70;;;;;;4588111;19;20026;-21
2022/11/27 04:07:18;;;;;;;45.17;32.60;;;13.60;92.70;;;;;;4588205;19;20097;-20
2022/11/27 04:08:51;;;;;;;45.23;32.60;;;13.70;92.70;;;;;;4587966;19;20018;-20
2022/11/27 04:10:23;;;;;;;44.53;30.63;;;13.60;92.70;;;;;;4587773;19;20421;-21
2022/11/27 04:11:54;;;;;;;44.67;31.77;;;13.60;92.60;;;;;;4588356;19;20810;-21
2022/11/27 04:13:25;;;;;;;38.92;29.23;;;13.60;92.70;;;;;;4587301;19;20015;-21
2022/11/27 04:14:56;;;;;;;45.25;32.72;;;13.60;92.80;;;;;;4587817;19;20007;-21
2022/11/27 04:16:28;;;;;;;40.73;31.80;;;13.60;92.70;;;;;;4587802;19;20010;-20
2022/11/27 04:18:00;;;;;;;44.43;31.77;;;13.60;92.80;;;;;;4587625;19;20455;-21
2022/11/27 04:19:31;;;;;;;44.28;31.92;;;13.60;92.80;;;;;;4587723;19;20441;-20
2022/11/27 04:21:02;;;;;;;42.22;31.27;;;13.60;92.80;;;;;;4587974;19;20479;-20
2022/11/27 04:22:34;;;;;;;45.60;30.37;;;13.60;92.80;;;;;;4587736;19;20019;-22
2022/11/27 04:24:05;;;;;;;45.15;31.05;;;13.70;92.80;;;;;;4588906;19;21040;-21
2022/11/27 04:25:37;;;;;;;49.47;34.07;;;13.60;92.80;;;;;;4589619;19;20018;-20
2022/11/27 04:27:10;;;;;;;46.93;33.80;;;13.60;92.70;;;;;;4589940;19;20015;-20
2022/11/27 04:28:42;;;;;;;49.17;35.50;;;13.60;92.80;;;;;;4590492;19;20013;-20
2022/11/27 04:30:13;;;;;;;49.30;33.78;;;13.60;92.70;;;;;;4595130;19;19998;-20
2022/11/27 04:31:45;;;;;;;50.53;36.17;;;13.70;92.80;;;;;;4594295;19;20019;-22
2022/11/27 04:33:18;;;;;;;49.97;33.77;;;13.60;92.80;;;;;;4593014;19;20032;-21
2022/11/27 04:34:49;;;;;;;47.10;32.25;;;13.60;92.70;;;;;;4594853;19;20011;-21
2022/11/27 04:36:21;;;;;;;43.87;31.57;;;13.60;92.80;;;;;;4594496;19;20014;-20
2022/11/27 04:37:57;;;;;;;46.10;33.37;;;13.60;92.70;;;;;;4594406;19;20021;-21
2022/11/27 04:39:29;;;;;;;46.70;34.63;;;13.60;92.70;;;;;;4593238;19;20021;-22
2022/11/27 04:41:01;;;;;;;47.30;33.72;;;13.60;92.80;;;;;;4594037;19;20492;-21
2022/11/27 04:42:34;;;;;;;46.47;33.73;;;13.60;92.80;;;;;;4594026;19;20025;-21
2022/11/27 04:44:06;;;;;;;50.80;34.83;;;13.60;92.80;;;;;;4594180;19;20023;-21
2022/11/27 04:45:40;;;;;;;45.83;33.03;;;13.60;92.90;;;;;;4594819;19;20018;-23
2022/11/27 04:47:11;;;;;;;48.37;34.57;;;13.60;92.80;;;;;;4591797;19;20009;-22
2022/11/27 04:48:42;;;;;;;48.72;34.90;;;13.60;92.90;;;;;;4593403;19;20459;-21
2022/11/27 04:50:14;;;;;;;47.83;34.08;;;13.60;92.80;;;;;;4593993;19;20026;-21
2022/11/27 04:51:47;;;;;;;45.27;31.80;;;13.60;92.80;;;;;;4593196;19;20062;-21
2022/11/27 04:53:18;;;;;;;48.53;32.80;;;13.60;92.80;;;;;;4593246;19;20006;-21
2022/11/27 04:54:49;;;;;;;44.70;32.67;;;13.60;92.80;;;;;;4593580;19;20040;-21
2022/11/27 04:56:22;;;;;;;45.70;32.70;;;13.60;92.90;;;;;;4594265;19;20011;-22
2022/11/27 04:57:54;;;;;;;46.87;33.33;;;13.60;92.90;;;;;;4594359;19;20010;-21
2022/11/27 04:59:26;;;;;;;44.33;31.83;;;13.60;92.90;;;;;;4593046;19;20018;-21
2022/11/27 05:00:59;;;;;;;45.40;33.40;;;13.60;92.90;;;;;;4593700;19;20006;-20
2022/11/27 05:02:30;;;;;;;47.45;32.45;;;13.60;92.90;;;;;;4592674;19;20037;-22
2022/11/27 05:04:02;;;;;;;43.13;31.03;;;13.70;92.90;;;;;;4593679;19;20006;-21
2022/11/27 05:05:34;;;;;;;43.03;31.10;;;13.60;92.90;;;;;;4594396;19;20464;-22
2022/11/27 05:07:06;;;;;;;42.90;30.90;;;13.70;92.90;;;;;;4591304;19;20021;-23
2022/11/27 05:08:37;;;;;;;45.60;32.70;;;13.70;92.90;;;;;;4592982;19;20775;-21
2022/11/27 05:10:10;;;;;;;49.13;33.80;;;13.60;92.90;;;;;;4592844;19;19998;-21
2022/11/27 05:11:42;;;;;;;45.13;32.80;;;13.60;92.90;;;;;;4593521;19;20465;-20
2022/11/27 05:13:15;;;;;;;46.47;33.33;;;13.60;92.90;;;;;;4592395;19;20013;-21
2022/11/27 05:14:47;;;;;;;48.27;32.40;;;13.60;92.90;;;;;;4592441;19;20467;-21
2022/11/27 05:16:18;;;;;;;48.33;33.55;;;13.60;92.90;;;;;;4593183;19;19998;-21
2022/11/27 05:17:51;;;;;;;43.90;32.20;;;13.60;92.80;;;;;;4592616;19;20018;-21
2022/11/27 05:19:26;;;;;;;41.90;32.63;;;13.60;92.80;;;;;;4593476;19;20474;-21
2022/11/27 05:21:00;;;;;;;48.23;33.17;;;13.60;92.90;;;;;;4593592;19;20066;-20
2022/11/27 05:22:33;;;;;;;48.10;34.27;;;13.60;92.90;;;;;;4593017;19;20320;-21
2022/11/27 05:24:04;;;;;;;49.55;33.95;;;13.60;92.90;;;;;;4592896;19;20500;-21
2022/11/27 05:25:36;;;;;;;52.50;35.90;;;13.60;92.90;;;;;;4593544;19;20078;-21
2022/11/27 05:27:09;;;;;;;54.67;36.47;;;13.60;92.90;;;;;;4593746;19;20010;-21
2022/11/27 05:28:41;;;;;;;53.27;36.40;;;13.60;92.80;;;;;;4594154;19;20015;-20
2022/11/27 05:30:13;;;;;;;50.40;35.10;;;13.60;92.80;;;;;;4593243;19;20471;-21
2022/11/27 05:31:46;;;;;;;46.13;33.30;;;13.60;92.80;;;;;;4593153;19;20014;-21
2022/11/27 05:33:18;;;;;;;47.20;34.63;;;13.60;92.80;;;;;;4592610;19;20024;-23
2022/11/27 05:34:51;;;;;;;50.20;33.03;;;13.60;92.80;;;;;;4592252;19;20017;-20
2022/11/27 05:36:23;;;;;;;46.93;32.30;;;13.60;92.80;;;;;;4592855;19;20017;-21
2022/11/27 05:37:55;;;;;;;44.40;33.20;;;13.60;92.80;;;;;;4591838;19;20033;-20
2022/11/27 05:39:27;;;;;;;46.63;33.03;;;13.60;92.80;;;;;;4592959;19;20069;-21
2022/11/27 05:40:59;;;;;;;45.08;32.83;;;13.60;92.90;;;;;;4592060;19;20018;-21
2022/11/27 05:42:30;;;;;;;46.05;33.75;;;13.70;92.90;;;;;;4593370;19;20461;-20
2022/11/27 05:44:01;;;;;;;48.47;35.22;;;13.60;92.90;;;;;;4592753;19;20347;-21
2022/11/27 05:45:35;;;;;;;43.40;32.57;;;13.60;92.90;;;;;;4592216;19;20029;-22
2022/11/27 05:47:07;;;;;;;45.63;33.13;;;13.60;92.90;;;;;;4592268;19;20013;-21
2022/11/27 05:48:39;;;;;;;43.70;32.13;;;13.60;92.90;;;;;;4592352;19;20436;-21
2022/11/27 05:50:12;;;;;;;43.33;31.27;;;13.60;92.90;;;;;;4592844;19;20078;-22
2022/11/27 05:51:43;;;;;;;45.95;32.25;;;13.60;92.90;;;;;;4593799;19;20489;-21
2022/11/27 05:53:15;;;;;;;45.50;32.20;;;13.60;92.80;;;;;;4591360;19;20006;-21
2022/11/27 05:54:46;;;;;;;46.92;32.95;;;13.60;92.90;;;;;;4592880;19;20015;-21
2022/11/27 05:56:18;;;;;;;44.25;32.45;;;13.60;92.80;;;;;;4592000;19;20492;-22
2022/11/27 05:57:49;;;;;;;44.55;31.88;;;13.60;92.90;;;;;;4592008;19;20089;-20
2022/11/27 05:59:21;;;;;;;48.90;33.23;;;13.60;92.90;;;;;;4594614;19;20015;-20
2022/11/27 06:00:54;;;;;;;46.90;32.90;;;13.60;92.90;;;;;;4592639;19;20026;-21
2022/11/27 06:02:27;;;;;;;42.07;32.63;;;13.60;92.90;;;;;;4593057;19;20083;-21
2022/11/27 06:03:59;;;;;;;46.88;33.95;;;13.60;92.90;;;;;;4593508;19;20074;-23
2022/11/27 06:05:31;;;;;;;48.40;37.93;;;13.60;92.90;;;;;;4592310;19;20018;-19
2022/11/27 06:07:03;;;;;;;66.25;51.45;;;13.60;92.90;;;;;;4592782;19;20010;-22
2022/11/27 06:08:39;;;;;;;50.50;35.13;;;13.60;92.90;;;;;;4592699;19;20498;-20
2022/11/27 06:10:11;;;;;;;46.03;33.87;;;13.60;92.90;;;;;;4590139;19;20018;-21
2022/11/27 06:11:42;;;;;;;46.38;34.28;;;13.60;92.90;;;;;;4584985;19;20010;-23
2022/11/27 06:13:15;;;;;;;42.53;33.70;;;13.60;92.90;;;;;;4590653;19;20018;-21
2022/11/27 06:14:46;;;;;;;48.80;37.42;;;12.30;93.70;;;;;;4590991;19;20011;-21
2022/11/27 06:16:19;;;;;;;49.83;36.53;;;10.80;95.90;;;;;;4591144;19;20022;-21
2022/11/27 06:17:51;;;;;;;46.47;34.20;;;10.10;97.20;;;;;;4590831;19;20042;-20
2022/11/27 06:19:22;;;;;;;50.40;35.70;;;9.70;97.90;;;;;;4591282;19;20835;-22
2022/11/27 06:20:53;;;;;;;55.92;39.92;;;9.50;98.20;;;;;;4592552;19;20349;-21
2022/11/27 06:22:24;;;;;;;61.40;43.80;;;9.40;98.60;;;;;;4590525;19;20015;-21
2022/11/27 06:23:55;;;;;;;58.92;42.78;;;9.40;98.80;;;;;;4590194;19;20027;-24
2022/11/27 06:25:26;;;;;;;54.55;39.33;;;9.30;98.90;;;;;;4590552;19;20015;-21
2022/11/27 06:26:59;;;;;;;52.50;37.33;;;9.30;99.10;;;;;;4593205;19;20412;-20
2022/11/27 06:28:30;;;;;;;58.43;41.23;;;9.20;99.10;;;;;;4592312;19;20490;-21
2022/11/27 06:30:00;;;;;;;57.20;40.83;;;9.20;99.40;;;;;;4591904;19;20014;-20
2022/11/27 06:31:32;;;;;;;75.00;51.50;;;9.20;99.80;;;;;;4590605;19;20344;-20
2022/11/27 06:33:03;;;;;;;87.55;60.58;;;9.20;99.70;;;;;;4590027;19;20014;-20
2022/11/27 06:34:34;;;;;;;82.03;55.38;;;9.20;99.80;;;;;;4590941;19;20399;-21
2022/11/27 06:36:06;;;;;;;73.50;50.85;;;9.20;99.70;;;;;;4589942;19;20364;-21
2022/11/27 06:37:37;;;;;;;60.03;40.17;;;9.10;99.80;;;;;;4592359;19;20006;-21
2022/11/27 06:39:09;;;;;;;59.63;38.97;;;9.10;99.80;;;;;;4590350;19;20014;-20
2022/11/27 06:40:40;;;;;;;53.07;36.93;;;9.10;99.90;;;;;;4591388;19;20563;-20
2022/11/27 06:42:11;;;;;;;52.58;36.38;;;9.10;99.90;;;;;;4592144;19;21036;-21
2022/11/27 06:43:42;;;;;;;50.78;35.08;;;9.10;99.90;;;;;;4592259;19;20010;-20
2022/11/27 06:45:14;;;;;;;57.10;35.60;;;9.10;99.90;;;;;;4591241;19;20015;-20
2022/11/27 06:46:45;;;;;;;54.38;36.83;;;9.10;99.90;;;;;;4588572;19;20024;-21
2022/11/27 06:48:16;;;;;;;51.25;35.80;;;9.10;99.90;;;;;;4589786;19;20022;-20
2022/11/27 06:49:47;;;;;;;54.38;37.00;;;9.10;99.90;;;;;;4590636;19;20006;-22
2022/11/27 06:51:21;;;;;;;51.17;34.67;;;9.10;99.90;;;;;;4590011;19;20014;-22
2022/11/27 06:52:52;;;;;;;49.63;34.20;;;9.10;99.90;;;;;;4586259;19;20445;-20
2022/11/27 06:54:23;;;;;;;49.55;33.70;;;9.10;99.90;;;;;;4589955;19;20455;-21
2022/11/27 06:55:55;;;;;;;;;;;9.10;99.90;;;;;;4593402;19;20066;-20
2022/11/27 06:57:27;;;;;;;49.47;34.60;;;9.10;99.90;;;;;;4591659;19;19918;-19
2022/11/27 06:58:59;;;;;;;45.60;34.33;;;9.10;99.90;;;;;;4591314;19;20039;-21
2022/11/27 07:00:30;;;;;;;50.10;34.47;;;9.00;99.90;;;;;;4590024;19;20461;-20
2022/11/27 07:02:01;;;;;;;46.80;32.47;;;9.10;99.90;;;;;;4588035;19;20023;-20
2022/11/27 07:03:33;;;;;;;42.45;31.70;;;9.00;99.90;;;;;;4586966;19;20010;-20
2022/11/27 07:05:04;;;;;;;47.42;32.80;;;9.00;99.90;;;;;;4588410;19;20011;-22
2022/11/27 07:06:35;;;;;;;46.72;32.67;;;9.00;99.90;;;;;;4591860;19;20491;-20
2022/11/27 07:08:06;;;;;;;46.63;31.27;;;9.00;99.90;;;;;;4591627;19;20014;-20
2022/11/27 07:09:37;;;;;;;49.50;33.80;;;9.10;99.90;;;;;;4591421;19;20070;-21
2022/11/27 07:11:13;;;;;;;48.70;33.65;;;9.10;99.90;;;;;;4589650;19;20508;-21
2022/11/27 07:12:44;;;;;;;51.17;35.40;;;9.10;99.90;;;;;;4589156;19;20028;-21
2022/11/27 07:14:15;;;;;;;52.17;38.47;;;9.10;99.90;;;;;;4589776;19;20505;-20
2022/11/27 07:15:46;;;;;;;51.85;36.42;;;9.00;99.90;;;;;;4589437;19;20027;-23
2022/11/27 07:17:17;;;;;;;53.55;39.65;;;9.00;99.90;;;;;;4590022;19;20022;-20
2022/11/27 07:18:50;;;;;;;;;;;9.00;99.90;;;;;;4589547;19;20472;-20
2022/11/27 07:20:20;;;;;;;49.60;33.83;;;9.00;99.90;;;;;;4589402;19;19978;-20
2022/11/27 07:21:52;;;;;;;56.75;37.80;;;9.00;99.90;;;;;;4591809;19;20527;-20
2022/11/27 07:23:23;;;;;;;55.22;37.88;;;9.00;99.90;;;;;;4591630;19;20015;-21
2022/11/27 07:24:54;;;;;;;50.38;36.55;;;9.10;99.90;;;;;;4590773;19;20066;-20
2022/11/27 07:26:27;;;;;;;51.03;34.92;;;9.10;99.90;;;;;;4590578;19;20014;-22
2022/11/27 07:27:58;;;;;;;50.57;35.60;;;9.10;99.90;;;;;;4588732;19;20014;-21
2022/11/27 07:29:29;;;;;;;46.83;34.50;;;9.10;99.90;;;;;;4589288;19;20449;-20
2022/11/27 07:31:00;;;;;;;53.38;37.53;;;9.00;99.90;;;;;;4589259;19;20015;-21
2022/11/27 07:32:33;;;;;;;51.53;35.83;;;9.10;99.90;;;;;;4587641;19;20014;-20
2022/11/27 07:34:05;;;;;;;47.03;35.00;;;9.00;99.90;;;;;;4587971;19;20783;-20
2022/11/27 07:35:36;;;;;;;47.67;33.87;;;9.00;99.90;;;;;;4591556;19;20015;-20
2022/11/27 07:37:07;;;;;;;46.03;32.47;;;9.10;99.90;;;;;;4590996;19;20453;-21
2022/11/27 07:38:39;;;;;;;57.13;35.05;;;9.50;99.90;;;;;;4590992;19;20011;-20
2022/11/27 07:40:11;;;;;;;;;;;10.20;99.90;;;;;;4590545;19;20032;-22
2022/11/27 07:41:42;;;;;;;54.58;34.22;;;10.70;99.90;;;;;;4590202;19;20359;-20
2022/11/27 07:43:13;;;;;;;51.15;32.20;;;11.10;99.50;;;;;;4588498;19;20011;-21
2022/11/27 07:44:44;;;;;;;50.70;32.00;;;11.40;99.00;;;;;;4589047;19;20360;-20
2022/11/27 07:46:18;;;;;;;50.00;31.90;;;11.60;98.70;;;;;;4589664;19;20566;-20
2022/11/27 07:47:50;;;;;;;52.03;31.90;;;11.80;98.40;;;;;;4588580;19;20015;-22
2022/11/27 07:49:23;;;;;;;48.13;32.97;;;11.90;98.20;;;;;;4589451;19;20481;-21
2022/11/27 07:50:55;;;;;;;46.10;32.90;;;12.00;98.00;;;;;;4590963;19;20429;-22
2022/11/27 07:52:28;;;;;;;43.70;31.80;;;12.10;97.90;;;;;;4589769;19;20471;-21
2022/11/27 07:53:59;;;;;;;45.88;32.60;;;11.20;98.40;;;;;;4589937;19;20449;-21
2022/11/27 07:55:30;;;;;;;39.10;29.00;;;10.30;99.90;;;;;;4590177;19;20015;-20
2022/11/27 07:57:01;;;;;;;36.60;28.58;;;9.80;99.90;;;;;;4590285;19;20448;-21
2022/11/27 07:58:33;;;;;;;45.10;31.87;;;9.50;99.90;;;;;;4590970;19;20019;-22
2022/11/27 08:00:06;;;;;;;47.08;34.13;;;9.40;99.90;;;;;;4589038;19;20491;-21